x

8461490 - New London, Ct (nlnc3) Weather Station

7:54 - Sun 26th Mar 2017 All times are EDT. -4 hours from GMT.

  • Wind
    7mph, 11mph gusts
  • Sea Temp 40°f
  • Luft Temp 38°f
  • Sea Pressure 1029.8mb
  • 8461490 - New London, Ct
  • 8461490 - New London, Ct

More Historic Weather Station data

Upgrade to MSW Pro to gain access to the past 30 days of data for over 8000 Wavebouys and Weather Stations around the globe.

Join Pro

Comparision Forecast

View Surf forecast
   
So 03/26 7:54 7 11 mph 1029.8mb 40f 38f
7:48 8 11 mph 1030mb 40f 38f
7:42 10 14 mph 1030.2mb 40f 38f
7:36 9 13 mph 1030.2mb 40f 38f
7:30 8 10 mph 1030.1mb 40f 38f
7:24 7 15 mph 1030.1mb 40f 38f
7:18 10 15 mph 1030mb 40f 38f
7:12 6 13 mph 1030.2mb 40f 39f
7:06 8 11 mph 1030.2mb 40f 39f
7:00 8 14 mph 1030.3mb 40f 39f
6:54 6 9 mph 1030.3mb 40f 39f
6:48 8 11 mph 1030.2mb 40f 39f
6:42 5 8 mph 1030.2mb 40f 39f
6:36 5 10 mph 1030.1mb 40f 39f
6:30 7 14 mph 1030.1mb 40f 39f
6:24 6 10 mph 1030.2mb 40f 39f
6:18 9 13 mph 1030.2mb 40f 39f
6:12 9 15 mph 1030.3mb 40f 39f
6:06 6 11 mph 1030.1mb 40f 39f
6:00 6 11 mph 1030.4mb 40f 39f
5:54 6 10 mph 1030.6mb 40f 39f
5:48 7 11 mph 1030.6mb 40f 39f
5:42 6 11 mph 1030.6mb 40f 39f
5:36 11 15 mph 1030.6mb 40f 39f
5:30 9 14 mph 1030.6mb 40f 39f
5:24 8 15 mph 1030.5mb 40f 39f
5:18 7 13 mph 1030.7mb 40f 39f
5:12 11 17 mph 1030.7mb 40f 39f
5:06 8 15 mph 1030.8mb 40f 40f
5:00 11 16 mph 1030.8mb 40f 40f
4:54 8 14 mph 1030.8mb 40f 40f
4:48 11 15 mph 1030.8mb 40f 40f
4:42 9 14 mph 1030.9mb 40f 40f
4:36 9 11 mph 1031mb 40f 40f
4:30 7 15 mph 1031.1mb 40f 40f
4:24 11 16 mph 1031.1mb 40f 40f
4:18 11 17 mph 1031.1mb 40f 40f
4:12 8 15 mph 1031mb 40f 40f
4:06 11 15 mph 1031mb 40f 40f
4:00 13 17 mph 1031.1mb 40f 40f
3:54 6 10 mph 1031.3mb 40f 40f
3:48 8 11 mph 1031.5mb 40f 40f
3:42 13 22 mph 1031.4mb 40f 40f
3:36 11 18 mph 1031.6mb 40f 40f
3:30 9 16 mph 1031.7mb 40f 40f
3:24 11 18 mph 1031.8mb 40f 40f
3:18 13 22 mph 1031.7mb 40f 40f
3:12 11 17 mph 1031.7mb 40f 40f
3:06 9 15 mph 1031.9mb 40f 40f
3:00 14 18 mph 1032.1mb 40f 40f
2:54 13 22 mph 1032.3mb 40f 40f
2:48 14 21 mph 1032.2mb 40f 40f
2:42 10 15 mph 1032.3mb 40f 40f
2:36 11 17 mph 1032.4mb 40f 40f
2:30 10 16 mph 1032.3mb 40f 40f
2:24 13 16 mph 1032.4mb 40f 40f
2:18 10 18 mph 1032.3mb 40f 40f
2:12 11 17 mph 1032.3mb 40f 40f
2:06 10 15 mph 1032.3mb 40f 40f
2:00 11 16 mph 1032.4mb 40f 40f
1:54 11 14 mph 1032.6mb 40f 41f
1:48 10 16 mph 1032.6mb 40f 41f
1:42 8 14 mph 1032.6mb 40f 41f
1:36 9 14 mph 1032.6mb 40f 41f
1:30 8 14 mph 1032.6mb 40f 41f
1:24 8 20 mph 1032.5mb 40f 41f
1:18 13 18 mph 1032.4mb 40f 41f
1:12 8 13 mph 1032.5mb 40f 41f
1:06 5 6 mph 1032.5mb 40f 41f
1:00 2 6 mph 1032.5mb 40f 40f
12:54 5 7 mph 1032.6mb 40f 40f
12:48 3 7 mph 1032.7mb 40f 40f
12:42 2 5 mph 1032.7mb 40f 40f
12:36 2 6 mph 1032.7mb 40f 40f
12:30 3 5 mph 1032.9mb 40f 40f
12:24 2 3 mph 1032.9mb 40f 40f
12:18 2 3 mph 1033.1mb 40f 40f
12:12 2 3 mph 1033.1mb 40f 39f
12:06 2 6 mph 1033.1mb 40f 40f
12:00 2 6 mph 1033.1mb 40f 40f
11:54 5 7 mph 1033mb 40f 39f
11:48 3 6 mph 1033mb 40f 39f
11:42 5 8 mph 1032.9mb 40f 39f
11:36 3 10 mph 1032.9mb 40f 40f
11:30 7 10 mph 1032.8mb 40f 40f
11:24 5 8 mph 1032.9mb 40f 39f
11:18 5 7 mph 1032.8mb 40f 39f
11:12 5 9 mph 1032.8mb 40f 39f
11:06 9 14 mph 1032.7mb 40f 40f
11:00 5 11 mph 1032.7mb 40f 40f
10:54 9 14 mph 1032.6mb 40f 40f
10:48 6 13 mph 1032.6mb 40f 40f
10:42 10 11 mph 1032.6mb 40f 40f
10:36 6 8 mph 1032.7mb 40f 40f
10:30 5 9 mph 1032.7mb 40f 40f
10:24 7 11 mph 1032.6mb 40f 39f
10:18 5 10 mph 1032.7mb 40f 39f
10:12 7 10 mph 1032.6mb 40f 39f
10:06 3 9 mph 1032.7mb 40f 39f
10:00 3 8 mph 1032.7mb 40f 39f
9:54 3 7 mph 1032.7mb 40f 39f
9:48 3 7 mph 1032.6mb 40f 39f
9:42 6 9 mph 1032.6mb 40f 39f
9:36 3 7 mph 1032.5mb 40f 39f
9:30 6 13 mph 1032.3mb 40f 38f
9:24 6 9 mph 1032.2mb 40f 38f
9:18 6 10 mph 1032.2mb 40f 38f
9:12 6 10 mph 1032.2mb 40f 38f
9:06 6 9 mph 1032.1mb 40f 38f
9:00 6 11 mph 1032mb 40f 38f
8:54 7 11 mph 1032.1mb 40f 38f
8:48 5 9 mph 1032.2mb 40f 37f
8:42 8 11 mph 1032.2mb 40f 36f
8:36 6 10 mph 1032.2mb 40f 36f
8:30 5 8 mph 1032.2mb 40f 37f
8:24 5 7 mph 1032.1mb 40f 37f
8:18 5 6 mph 1032mb 40f 37f
8:12 2 9 mph 1031.8mb 40f 36f
8:06 5 7 mph 1031.8mb 40f 36f
8:00 5 8 mph 1031.7mb 40f 36f
7:54 3 6 mph 1031.6mb 40f 35f
7:48 5 10 mph 1031.7mb 40f 35f
7:42 8 11 mph 1032mb 40f 34f
7:36 8 11 mph 1032.1mb 40f 34f
7:30 6 10 mph 1032mb 40f 34f
7:24 6 9 mph 1031.9mb 40f 34f
7:18 6 9 mph 1031.9mb 40f 34f
7:12 6 9 mph 1031.8mb 40f 33f
7:06 8 9 mph 1031.8mb 40f 33f
7:00 3 10 mph 1031.7mb 40f 33f
6:54 6 8 mph 1031.9mb 40f 33f
6:48 6 8 mph 1031.9mb 40f 33f
6:42 6 9 mph 1031.8mb 40f 33f
6:36 5 7 mph 1031.9mb 40f 33f
6:30 3 10 mph 1031.9mb 40f 33f
6:24 6 8 mph 1031.9mb 40f 33f
6:18 5 7 mph 1031.7mb 40f 33f
6:12 2 6 mph 1031.5mb 40f 33f
6:06 5 7 mph 1031.6mb 40f 33f
6:00 5 8 mph 1031.5mb 40f 33f
5:54 6 7 mph 1031.5mb 40f 33f
5:48 3 6 mph 1031.4mb 40f 33f
5:42 5 8 mph 1031.3mb 40f 33f
5:36 5 7 mph 1031.3mb 40f 33f
5:30 3 7 mph 1031.2mb 40f 33f
5:24 2 6 mph 1031.2mb 40f 33f
5:18 3 5 mph 1031.1mb 40f 33f
5:12 2 5 mph 1031mb 40f 34f
5:06 2 6 mph 1031mb 40f 34f
5:00 5 7 mph 1031.1mb 40f 34f
4:54 5 7 mph 1031mb 40f 34f
4:48 5 7 mph 1031mb 40f 34f
4:42 3 7 mph 1030.8mb 40f 34f
4:36 5 7 mph 1030.7mb 40f 34f
4:30 6 8 mph 1030.4mb 40f 34f
4:24 5 8 mph 1030.4mb 40f 34f
4:18 3 7 mph 1030.4mb 40f 34f
4:12 5 7 mph 1030.4mb 41f 34f
4:06 3 6 mph 1030.3mb 41f 34f
4:00 3 6 mph 1030.4mb 41f 34f
3:54 3 6 mph 1030.4mb 41f 34f
3:48 2 6 mph 1030.4mb 41f 35f
3:42 2 6 mph 1030.4mb 41f 35f
3:36 1 5 mph 1030.5mb 41f 35f
3:30 3 6 mph 1030.5mb 41f 35f
3:24 5 7 mph 1030.6mb 41f 35f
3:18 3 7 mph 1030.5mb 41f 35f
3:12 5 7 mph 1030.5mb 41f 36f
3:06 3 7 mph 1030.4mb 41f 36f
3:00 5 7 mph 1030.4mb 41f 36f
2:54 3 6 mph 1030.3mb 41f 36f
2:48 2 6 mph 1030.2mb 41f 36f
2:42 2 6 mph 1030.3mb 41f 36f
2:36 2 5 mph 1030.2mb 41f 36f
2:30 1 5 mph 1030.1mb 41f 36f
2:24  -  2 mph 1030.1mb 41f 36f
2:18 1 5 mph 1030.1mb 41f 36f
2:12 5
mph
1030.1mb 41f 37f
2:06 3 5 mph 1030.2mb 40f 37f
2:00 3 5 mph 1030.2mb 40f 37f
1:54 2 3 mph 1030.2mb 40f 37f
1:48 2 3 mph 1030.2mb 40f -
1:42 2 3 mph 1030.1mb 40f -
1:36 2 3 mph 1030.1mb 40f -
1:30  -  2 mph 1030.1mb 40f 37f
1:24 1 2 mph 1030.1mb 40f 37f
1:18 1 2 mph 1030.2mb 40f 37f
1:12 2 3 mph 1030.2mb 40f 38f
1:06 1 2 mph 1030.1mb 40f 38f
1:00  -  3 mph 1030mb 40f 38f
12:54  -  2 mph 1030mb 40f 38f
12:48 1 2 mph 1030mb 40f 38f
12:42  -  2 mph 1029.9mb 40f 38f
12:36 1 3 mph 1029.9mb 40f 38f
12:30 2 3 mph 1029.8mb 40f 38f
12:24 3 5 mph 1029.8mb 40f 38f
12:18 2 5 mph 1029.9mb 40f 38f
12:12 1 5 mph 1029.9mb 40f 39f
12:06  -  3 mph 1030mb 40f 39f
12:00 1 2 mph 1029.9mb 40f 39f
Sa 03/25 11:54 2 3 mph 1029.9mb 40f 39f
11:48 1 3 mph 1029.9mb 40f 39f
11:42 2 3 mph 1029.8mb 40f 39f
11:36 1 3 mph 1029.7mb 40f 39f
11:30 1 2 mph 1029.8mb 40f 40f
11:24  -  2 mph 1029.8mb 40f 40f
11:18  -  2 mph 1029.7mb 40f 40f
11:12 2 5 mph 1029.6mb 40f 40f
11:06 3 6 mph 1029.6mb 40f 40f
11:00 3 7 mph 1029.6mb 40f 40f
10:54 3 5 mph 1029.4mb 40f 40f
10:48 2 5 mph 1029.5mb 40f 40f
10:42 2 6 mph 1029.4mb 40f 40f
10:36 2 5 mph 1029.3mb 40f 40f
10:30 6
mph
1029.2mb 40f 40f
10:24 5 8 mph 1029.2mb 40f 41f
10:18 5 7 mph 1029.1mb 40f 41f
10:12 2 5 mph 1029mb 40f 41f
10:06 2 5 mph 1029mb 40f 41f
10:00 2 6 mph 1029mb 40f 41f
9:54 5 6 mph 1029mb 40f 41f
9:48 2 6 mph 1029mb 40f 41f
9:42 3 6 mph 1029.1mb 40f 41f
9:36 1 3 mph 1029.1mb 40f 41f
9:30 2 6 mph 1029mb 40f 41f
9:24 2 5 mph 1029mb 40f 41f
9:18 2 6 mph 1028.8mb 40f 41f
9:12 2 5 mph 1028.7mb 40f 41f
9:06 2 6 mph 1028.4mb 40f 41f
9:00 3 5 mph 1028.3mb 40f 41f
8:54 2 3 mph 1028.5mb 40f 41f
8:48 1 3 mph 1028.5mb 40f 41f
8:42 1 5 mph 1028.5mb 40f 41f
8:36 2 3 mph 1028.2mb 40f 41f
8:30 3 5 mph 1028.2mb 40f 41f
8:24 2 6 mph 1028mb 40f 42f
8:18 3 6 mph 1027.8mb 40f 41f
8:12 2 6 mph 1027.9mb 40f 41f
8:06 3 6 mph 1027.6mb 40f 42f
8:00 2 7 mph 1027.4mb 40f 42f
7:54 3 6 mph 1027.2mb 40f 42f
7:48 3 6 mph 1027.3mb 40f 42f
7:42 5 8 mph 1027.2mb 40f 42f
7:36 3 7 mph 1027.4mb 40f 42f
7:30 5 7 mph 1027.3mb 40f 42f
7:24 1 5 mph 1027.2mb 40f 42f
7:18 5 9 mph 1027.4mb 40f 42f
7:12 5 8 mph 1027.2mb 40f 42f
7:06 2 8 mph 1026.7mb 40f 42f
7:00 2 6 mph 1026.5mb 40f 42f
6:54 2 6 mph 1026.2mb 40f 42f
6:48 3 5 mph 1026mb 40f 42f
6:42 2 6 mph 1025.9mb 40f 42f
6:36 2 8 mph 1025.8mb 40f 42f
6:30 7 11 mph 1025.8mb 40f 42f
6:24 5 10 mph 1025.8mb 40f 42f
6:18 7 10 mph 1025.7mb 40f 42f
6:12 2 5 mph 1025.5mb 40f 43f
6:06 2 5 mph 1025.3mb 40f 43f
6:00 2 3 mph 1024.7mb 40f 43f
5:54 3 7 mph 1024.5mb 40f 42f
5:48 6 9 mph 1024.1mb 40f 42f
5:42 7 8 mph 1023.7mb 40f 42f
5:36 5 6 mph 1024mb 40f 42f
5:30 3 6 mph 1024.3mb 40f 42f
5:24 2 3 mph 1024.5mb 40f 42f
5:18  -  2 mph 1024.7mb 40f 42f
5:12 2 3 mph 1024.8mb 40f 42f
5:06 2 5 mph 1025mb 40f 42f
5:00 1 8 mph 1025.4mb 40f 42f
4:54 2 7 mph 1025.7mb 40f 42f
4:48 3 8 mph 1025.6mb 40f 42f
4:42 5 9 mph 1025.7mb 40f 43f
4:36 6 8 mph 1025.3mb 40f 43f
4:30 6 9 mph 1025.5mb 40f 43f
4:24 5 10 mph 1025.3mb 41f 44f
4:18 2 9 mph 1025.5mb 41f 44f
4:12 5 9 mph 1025.4mb 41f 44f
4:06 5 9 mph 1025.4mb 41f 44f
4:00 6 13 mph 1025.2mb 41f 45f
3:54 7 15 mph 1025.2mb 41f 45f
3:48 6 14 mph 1024.8mb 41f 46f
3:42 7 14 mph 1024.7mb 41f 46f
3:36 5 13 mph 1024.4mb 41f 46f
3:30 7 13 mph 1024.3mb 41f 46f
3:24 2 10 mph 1024.3mb 41f 47f
3:18 7 11 mph 1024.2mb 41f 47f
3:12 5 9 mph 1024mb 41f 47f
3:06 6 9 mph 1024.1mb 41f 48f
3:00 6 14 mph 1024mb 41f 48f
2:54 8 11 mph 1023.9mb 41f 48f
2:48 7 11 mph 1023.8mb 41f 49f
2:42 5 10 mph 1023.8mb 40f 48f
2:36 6 11 mph 1023.6mb 40f 49f
2:30 8 14 mph 1023.4mb 40f 48f
2:24 6 14 mph 1023.2mb 40f 49f
2:18 10 14 mph 1023.2mb 40f 49f
2:12 10 14 mph 1022.9mb 40f 50f
2:06 11 14 mph 1022.8mb 40f 50f
2:00 6 14 mph 1022.4mb 40f 51f
1:54 8 13 mph 1022.4mb 40f 51f
1:48 5 8 mph 1022.5mb 40f 51f
1:42 8 10 mph 1022.5mb 40f 51f
1:36 8 10 mph 1022.3mb 40f 51f
1:30 8 11 mph 1022.3mb 40f 52f
1:24 9 14 mph 1022.1mb 40f 51f
1:18 8 11 mph 1021.8mb 40f 51f
1:12 5 10 mph 1022mb 40f 51f
1:06 5 9 mph 1022.4mb 40f 51f
1:00 5 8 mph 1022.6mb 40f 51f
12:48 5 6 mph 1022.3mb 40f 53f
12:24 3 5 mph 1021.8mb 40f 51f
12:18 2 3 mph 1022.1mb 40f 52f
12:12 1 3 mph 1021.9mb 40f 51f
12:06 2 3 mph 1022mb 40f 51f
12:00  -  6 mph 1022.2mb 40f 51f
11:54 2 5 mph 1022mb 40f 50f
11:48 2 8 mph 1022.2mb 40f 51f
11:42 8 10 mph 1021.8mb 40f 50f
11:36 3 7 mph 1022.1mb 40f 49f
11:30 3 6 mph 1022.3mb 40f 49f
11:24 3 6 mph 1022.4mb 40f 49f
11:18 3 7 mph 1022.2mb 40f 49f
11:12 5 7 mph 1022.3mb 40f 49f
11:06 8 10 mph 1022.4mb 40f 48f
11:00 6 9 mph 1022mb 40f 48f
10:54 5 9 mph 1022.2mb 40f 47f
10:48 6 9 mph 1022.1mb 40f 47f
10:42 2 6 mph 1022.2mb 40f 47f
10:36 1 5 mph 1022.1mb 40f 46f
10:30 3 6 mph 1022.4mb 40f 47f
10:24 1 3 mph 1022.6mb 40f 46f
10:18 3 5 mph 1022.5mb 40f 46f
10:12 2 5 mph 1022.8mb 40f 47f
10:06 2 5 mph 1022.5mb 40f 46f
10:00 2 3 mph 1022.2mb 40f 45f
9:54 2 3 mph 1022mb 40f 45f
9:48 2 5 mph 1022.2mb 40f 45f
9:42 5 7 mph 1021.8mb 40f 45f
9:36 5 6 mph 1021.8mb 40f 45f
9:30 1 5 mph 1021.7mb 40f 44f
9:24 2 5 mph 1021.8mb 40f 43f
9:18  -  6 mph 1021.7mb 40f 43f
9:12 2 6 mph 1021.7mb 40f 43f
9:06 5
mph
1021.4mb 40f 42f
9:00 3 5 mph 1021.3mb 40f 42f
8:54 1 2 mph 1020.9mb 40f 42f
8:48 1 6 mph 1020.9mb 40f 42f
8:42 3 5 mph 1020.7mb 40f 41f
8:36 3 6 mph 1020.7mb 40f 41f
8:30 3 6 mph 1020.7mb 40f 41f
8:24 5 6 mph 1020.9mb 40f 41f
8:18 3 5 mph 1020.7mb 40f 40f
8:12 5
mph
1020.7mb 40f 40f
8:06 2
mph
1020.6mb 40f 41f
8:00 2
mph
1020.8mb 40f 42f
7:54 2
mph
1020.6mb 40f 41f
7:48  -  1 mph 1020.5mb 40f 41f
7:42  -  mph 1020.2mb 40f 40f
7:36  -  mph 1020.4mb 40f 40f
7:30  -  1 mph 1020.5mb 40f 40f
7:24 1 2 mph 1020.5mb 40f 40f
7:18 1 3 mph 1020.7mb 40f 40f
7:12 2 3 mph 1020.6mb 40f 40f
7:06  -  1 mph 1020.2mb 40f 40f
7:00 1 2 mph 1020mb 40f 40f
6:54 1 2 mph 1020.3mb 40f 40f
6:48 1 2 mph 1019.9mb 40f 40f
6:42 1 2 mph 1019.8mb 40f 40f
6:36 2 5 mph 1019.8mb 40f 40f
6:30 3 5 mph 1019.8mb 40f 40f
6:24 3 5 mph 1019.7mb 40f 40f
6:18 3 5 mph 1019.5mb 40f 40f
6:12 5
mph
1019.1mb 40f 40f
6:06 5 6 mph 1019mb 40f 40f
6:00 6
mph
1019mb 40f 40f
5:54 3
mph
1018.9mb 40f 40f
5:48 1 2 mph 1019mb 40f 40f
5:42 1 2 mph 1018.9mb 40f 41f
5:36 2 5 mph 1018.8mb 40f 40f
5:30 3 5 mph 1018.8mb 40f 41f
5:24 1 3 mph 1018.7mb 40f 41f
5:18 1 2 mph 1018.8mb 40f 41f
5:12 2 3 mph 1018.6mb 40f 42f
5:06 1 2 mph 1018.4mb 40f 42f
5:00  -  1 mph 1018.5mb 40f 42f
4:54 1 2 mph 1018.4mb 40f 42f
4:48  -  1 mph 1018.3mb 40f 42f
4:42  -  1 mph 1018.3mb 40f 42f
4:36  -  1 mph 1018.2mb 40f 42f
4:30 2 3 mph 1018.1mb 40f 42f
4:24 1 3 mph 1017.9mb 40f 42f
4:18 2 3 mph 1017.9mb 40f 42f
4:12 2 3 mph 1018mb 40f 42f
4:06  -  2 mph 1018mb 40f 43f
4:00  -  1 mph 1018.1mb 40f 43f
3:54  -  1 mph 1018.1mb 40f 43f
3:48  -  2 mph 1018mb 40f 43f
3:42  -  1 mph 1018.2mb 40f 43f
3:36  -  1 mph 1018mb 40f 43f
3:30  -  1 mph 1018mb 40f 44f
3:24 1 3 mph 1018mb 40f 44f
3:18 3 5 mph 1017.8mb 40f 43f
3:12 2 3 mph 1017.8mb 40f 43f
3:06 2 3 mph 1018mb 40f 43f
3:00 1 3 mph 1018.2mb 40f 43f
2:54 2 5 mph 1018.1mb 40f 43f
2:48 3 7 mph 1018.1mb 40f -
2:42 6 8 mph 1018mb 40f -
2:36 6
mph
1018mb 40f -
2:30 2 5 mph 1018.4mb 40f 43f
2:24 3
mph
1018.4mb 40f 44f
2:18 2 5 mph 1018.5mb 40f 44f
2:12 3 5 mph 1018.6mb 40f 44f
2:06 3 5 mph 1018.6mb 40f 44f
2:00 2 3 mph 1018.7mb 40f 45f
1:54 2 7 mph 1018.6mb 40f 45f
1:48 3 5 mph 1018.5mb 40f 45f
1:42 3 5 mph 1018.5mb 40f 45f
1:36 2 5 mph 1018.6mb 40f 45f
1:30  -  3 mph 1018.6mb 40f 44f
1:24 1 2 mph 1018.5mb 40f 45f
1:18 1 3 mph 1018.7mb 40f 45f
1:12 1 2 mph 1018.6mb 40f 44f
1:06 2 3 mph 1018.7mb 40f 45f
1:00 2 5 mph 1018.8mb 40f 45f
12:54 3 5 mph 1019.1mb 40f 45f
12:48 2 5 mph 1019.1mb 40f 45f
12:42 1 2 mph 1019.3mb 40f 45f
12:36  -  5 mph 1019.2mb 40f 45f
12:30 2 6 mph 1019.1mb 40f 45f
12:24 2 3 mph 1019.2mb 40f 45f
12:18  -  3 mph 1019.2mb 40f 45f
12:12 2 5 mph 1019.3mb 40f 45f
12:06  -  2 mph 1019.2mb 40f 45f
12:00 1 5 mph 1019.2mb 40f 45f
Fr 03/24 11:54 1 6 mph 1019.3mb 40f 45f
11:48 2 6 mph 1019.4mb 40f 45f
11:42 5 7 mph 1019.4mb 40f 46f
11:36 5 8 mph 1019.6mb 40f 46f
11:30 7 11 mph 1019.5mb 40f 46f
11:24 6 9 mph 1019.7mb 40f 46f
11:18 3 8 mph 1019.5mb 40f 46f
11:12 7 10 mph 1019.4mb 40f 46f
11:06 6 9 mph 1019.4mb 40f 46f
11:00 7 11 mph 1019.6mb 40f 46f
10:54 6 10 mph 1019.7mb 40f 46f
10:48 7 11 mph 1019.8mb 40f 46f
10:42 6 14 mph 1019.8mb 40f 46f
10:36 7 13 mph 1019.7mb 40f 46f
10:30 6 11 mph 1019.9mb 40f 46f
10:24 6 11 mph 1019.8mb 40f 46f
10:18 7 9 mph 1019.7mb 40f 46f
10:12 6 15 mph 1019.9mb 40f 46f
10:06 8 13 mph 1019.9mb 40f 46f
10:00 9 14 mph 1019.9mb 40f 46f
9:54 9 14 mph 1019.9mb 40f 46f
9:48 9 14 mph 1020.1mb 40f 46f
9:42 9 13 mph 1020.2mb 40f 46f
9:36 9 14 mph 1020.2mb 40f 46f
9:30 8 15 mph 1020.2mb 40f 46f
9:24 8 16 mph 1020.2mb 40f 46f
9:18 9 15 mph 1020.2mb 40f 46f
9:12 6 13 mph 1020.1mb 40f 46f
9:06 10 15 mph 1020.1mb 40f 46f
9:00 9 15 mph 1020.2mb 40f 46f
8:54 9 14 mph 1020.3mb 40f 46f
8:48 8 11 mph 1020.5mb 40f 46f
8:42 6 10 mph 1020.5mb 40f 45f
8:36 6 9 mph 1020.5mb 40f 45f
8:30 7 11 mph 1020.4mb 40f 45f
8:24 7 11 mph 1020.5mb 40f 45f
8:18 7 9 mph 1020.4mb 40f 45f
8:12 6 9 mph 1020.4mb 40f 45f
8:06 7 11 mph 1020.3mb 40f 45f
8:00 7 11 mph 1020.2mb 40f 45f
7:54 7 10 mph 1020.1mb 40f 45f
7:48 6 9 mph 1020.1mb 40f 45f
7:42 7 11 mph 1020.1mb 40f 45f
7:36 7 13 mph 1020mb 40f 44f
7:30 7 11 mph 1020.1mb 40f 44f
7:24 8 13 mph 1020.2mb 40f 44f
7:18 9 13 mph 1020.1mb 40f 44f
7:12 8 11 mph 1020.1mb 40f 44f
7:06 9 13 mph 1020.1mb 40f 44f
7:00 8 13 mph 1020.2mb 40f 44f
6:54 9 14 mph 1020.3mb 40f 45f
6:48 8 10 mph 1020.3mb 40f 45f
6:42 6 10 mph 1020.3mb 40f 45f
6:36 9 11 mph 1020.4mb 40f 45f
6:30 8 11 mph 1020.6mb 40f 45f
6:24 7 11 mph 1020.7mb 40f 45f
6:18 7 11 mph 1020.7mb 40f 45f
6:12 6 13 mph 1020.8mb 40f 45f
6:06 6 11 mph 1020.9mb 40f 45f
6:00 6 9 mph 1020.9mb 40f 45f
5:54 8 11 mph 1020.9mb 40f 45f
5:48 8 11 mph 1021mb 40f 45f
5:42 7 14 mph 1021mb 40f 45f
5:36 8 13 mph 1021.1mb 40f 45f
5:30 7 13 mph 1021.2mb 40f 45f
5:24 8 13 mph 1021.3mb 40f 45f
5:18 8 14 mph 1021.3mb 40f 45f
5:12 10 16 mph 1021.5mb 40f 45f
5:06 9 16 mph 1021.6mb 40f 45f
5:00 10 17 mph 1021.5mb 40f 45f
4:54 13 20 mph 1021.6mb 40f 45f
4:48 10 17 mph 1021.7mb 40f 45f
4:42 15 21 mph 1021.8mb 40f 45f
4:36 13 20 mph 1021.8mb 40f 45f
4:30 9 22 mph 1021.9mb 40f 45f
4:24 11 23 mph 1021.8mb 40f 45f
4:18 16 24 mph 1021.5mb 40f 44f
4:12 16 24 mph 1021.8mb 40f 44f
4:06 15 20 mph 1022.2mb 40f 44f
4:00 15 24 mph 1022.3mb 40f 44f
3:54 13 20 mph 1022.5mb 40f 44f
3:48 13 25 mph 1022.7mb 40f 44f
3:42 14 23 mph 1022.8mb 40f 44f
3:36 15 22 mph 1022.8mb 40f 44f
3:30 14 25 mph 1022.9mb 40f 44f
3:24 16 26 mph 1022.9mb 40f 44f
3:18 14 23 mph 1023mb 40f 44f
3:12 17 24 mph 1023.1mb 40f 44f
3:06 16 24 mph 1023.3mb 40f 44f
3:00 18 25 mph 1023.4mb 40f 44f
2:54 15 20 mph 1023.6mb 40f 44f
2:48 15 22 mph 1023.9mb 40f 43f
2:42 14 22 mph 1024mb 40f 43f
2:36 18 26 mph 1024.3mb 40f 43f
2:30 14 20 mph 1024.6mb 40f 43f
2:24 17 24 mph 1024.9mb 40f 43f
2:18 14 23 mph 1025.1mb 40f 43f
2:12 14 21 mph 1025.2mb 40f 43f
2:06 15 21 mph 1025.4mb 40f 43f
2:00 17 25 mph 1025.5mb 40f 43f
1:54 16 29 mph 1025.8mb 40f 43f
1:48 15 23 mph 1026.1mb 40f 43f
1:42 11 24 mph 1026.3mb 40f 44f
1:36 14 20 mph 1026.6mb 40f 44f
1:30 13 23 mph 1026.7mb 40f 44f
1:24 13 20 mph 1026.8mb 40f 44f
1:18 15 25 mph 1027mb 40f 43f
1:12 17 26 mph 1027mb 40f 43f
1:06 16 22 mph 1027.2mb 40f 43f
1:00 14 23 mph 1027.4mb 40f 43f
12:54 17 22 mph 1027.5mb 40f 42f
12:48 14 21 mph 1027.8mb 40f 42f
12:42 16 22 mph 1028.1mb 40f 42f
12:36 16 24 mph 1028.4mb 40f 42f
12:30 16 22 mph 1028.8mb 40f 42f
12:24 16 25 mph 1028.8mb 40f 42f
12:18 13 20 mph 1029mb 40f 42f
12:12 15 20 mph 1029.1mb 40f 42f
12:06 14 20 mph 1029.3mb 40f 42f
12:00 15 20 mph 1029.4mb 40f 42f
11:54 16 22 mph 1029.5mb 40f 42f
11:48 17 22 mph 1029.6mb 40f 42f
11:42 14 18 mph 1030mb 40f 42f
11:36 14 24 mph 1030.2mb 40f 42f
11:30 13 21 mph 1030.2mb 40f 42f
11:24 18 23 mph 1030.2mb 40f 42f
11:18 15 21 mph 1030.4mb 40f 42f
11:12 15 23 mph 1030.5mb 40f 42f
11:06 15 24 mph 1030.5mb 40f 42f
11:00 15 23 mph 1030.3mb 40f 42f
10:54 15 22 mph 1030.4mb 40f 42f
10:48 17 23 mph 1030.4mb 40f 41f
10:42 14 20 mph 1030.6mb 40f 41f
10:36 14 17 mph 1030.6mb 40f 41f
10:30 13 20 mph 1030.8mb 40f 41f
10:24 13 18 mph 1031mb 40f 41f
10:18 11 15 mph 1031.2mb 40f 41f
10:12 10 17 mph 1031.3mb 40f 41f
10:06 10 18 mph 1031.4mb 40f 41f
10:00 8 15 mph 1031.7mb 40f 41f
9:54 10 16 mph 1031.5mb 40f 41f
9:48 10 17 mph 1031.5mb 40f 41f
9:42 14 16 mph 1031.2mb 40f 40f
9:36 9 13 mph 1031.2mb 40f 40f
9:30 8 13 mph 1031.1mb 40f 40f
9:24 10 14 mph 1031.1mb 40f 39f
9:18 9 14 mph 1031.1mb 40f 39f
9:12 8 13 mph 1031.3mb 40f 39f
9:06 10 15 mph 1031.3mb 40f 39f
9:00 13 15 mph 1031.6mb 40f 39f
8:54 10 13 mph 1031.7mb 40f 39f
8:48 10 14 mph 1031.8mb 40f 39f
8:42 8 13 mph 1031.7mb 40f 38f
8:36 11 14 mph 1031.8mb 40f 38f
8:30 7 11 mph 1031.7mb 40f 38f
8:24 7 10 mph 1031.9mb 40f 38f
8:18 2
mph
1032.1mb 40f 34f
8:12  -  2 mph 1032.4mb 40f 32f
8:06 1 2 mph 1032.5mb 40f 32f
8:00 2 3 mph 1032.8mb 40f 32f
7:54 3 5 mph 1033mb 40f 31f
7:48 2
mph
1032.8mb 40f 31f
7:42  -  3 mph 1032.6mb 40f 31f
7:36 2 3 mph 1032.7mb 40f 30f
7:30 3 5 mph 1032.7mb 40f 30f
7:24 5 6 mph 1032.7mb 40f 30f
7:18 5 6 mph 1032.8mb 40f 30f
7:12 5
mph
1032.8mb 40f 30f
7:06 3 5 mph 1032.8mb 40f 30f
7:00 2 3 mph 1032.7mb 40f 30f
6:54 2 3 mph 1032.7mb 40f 30f
6:48 2 3 mph 1032.8mb 40f 29f
6:42 3
mph
1032.8mb 40f 29f
6:36 1 2 mph 1032.7mb 40f 29f
6:30 2 3 mph 1032.8mb 40f 29f
6:24 1 2 mph 1032.7mb 40f 29f
6:18  -  2 mph 1032.6mb 40f 29f
6:12 2 3 mph 1032.8mb 40f 29f
6:06 2
mph
1032.8mb 40f 29f
6:00 2 3 mph 1032.9mb 40f 29f
5:54 3 5 mph 1032.7mb 40f 28f
5:48 3 6 mph 1032.7mb 40f 28f
5:42 5 6 mph 1032.8mb 40f 29f
5:36 6 7 mph 1032.8mb 40f 29f
5:30 6 7 mph 1032.9mb 40f 29f
5:24 3 5 mph 1032.7mb 40f 29f
5:18 2 3 mph 1032.6mb 40f 28f
5:12  -  1 mph 1032.6mb 40f 28f
5:06 1 2 mph 1032.7mb 40f 28f
5:00  -  2 mph 1032.5mb 40f 28f
4:54 2 3 mph 1032.5mb 40f 29f
4:48 3 5 mph 1032.6mb 40f 29f
4:42 3 5 mph 1032.9mb 40f 29f
4:36 3
mph
1032.8mb 40f 29f
4:30 1 3 mph 1032.7mb 40f 29f
4:24 1
mph
1032.8mb 40f 29f
4:18 1 2 mph 1033mb 40f 28f
4:12  -  1 mph 1033.1mb 40f 29f
4:06  -  2 mph 1033.3mb 40f 28f
4:00 1 3 mph 1033.2mb 40f 28f
3:54 2 3 mph 1033.4mb 40f 28f
3:48 3 6 mph 1033.4mb 40f 28f
3:42 5 6 mph 1033.6mb 40f 28f
3:36 3 6 mph 1033.8mb 40f 28f
3:30 5 6 mph 1033.9mb 40f 28f
3:24 2 5 mph 1033.9mb 40f 28f
3:18 3 5 mph 1033.9mb 40f 28f
3:12 2 5 mph 1034.3mb 40f 28f
3:06 3 5 mph 1034.1mb 40f 28f
3:00 2 3 mph 1033.7mb 40f 28f
2:54 2 5 mph 1033.8mb 40f 28f
2:48 3 5 mph 1033.8mb 40f 28f
2:42 1 5 mph 1034mb 40f 28f
2:36 2 3 mph 1033.9mb 40f 28f
2:30 2 3 mph 1034.1mb 40f 28f
2:24 2 3 mph 1034mb 40f 28f
2:18 2
mph
1033.8mb 40f 28f
2:12  -  1 mph 1033.9mb 40f 28f
2:06 1 3 mph 1033.8mb 40f 29f
2:00 2 3 mph 1033.6mb 40f 29f
1:54 1
mph
1033.8mb 40f 28f
1:48  -  1 mph 1033.7mb 40f -
1:42  -  3 mph 1034mb 40f -
1:36 2 3 mph 1034mb 40f -
1:30 2 5 mph 1034.2mb 40f 29f
1:24 2
mph
1034.1mb 40f 29f
1:18 3 5 mph 1034.2mb 40f 29f
1:12 3 6 mph 1034.3mb 40f 29f
1:06 6 7 mph 1034.2mb 40f 29f
1:00 5
mph
1034.3mb 40f 30f
12:54 3
mph
1034.3mb 40f 30f
12:48 2 3 mph 1034.1mb 40f 29f
12:42 2 3 mph 1034.1mb 40f 30f
12:36 2 3 mph 1034mb 40f 29f
12:30 2 3 mph 1033.8mb 40f 30f
12:24 2 3 mph 1033.9mb 40f 29f
12:18 2
mph
1034mb 40f 30f
12:12  -  1 mph 1034mb 40f 30f
12:06  -  1 mph 1033.8mb 40f 30f
12:00 1 2 mph 1034.1mb 40f 30f
Do 03/23 11:54 1 2 mph 1034.1mb 40f 30f
11:48  -  3 mph 1034mb 40f 31f
11:42 2 3 mph 1034.1mb 40f 31f
11:36 2 3 mph 1034.3mb 40f 31f
11:30 2 3 mph 1034.5mb 40f 31f
11:24 2 3 mph 1034.5mb 40f 31f
11:18  -  2 mph 1034.6mb 40f 31f
11:12 1 2 mph 1034.8mb 40f 31f
11:06 1 2 mph 1034.8mb 40f 32f
11:00 1 3 mph 1034.8mb 40f 32f
10:54 2 3 mph 1035mb 40f 31f
10:48  -  2 mph 1034.9mb 40f 31f
10:42 1
mph
1034.9mb 40f 31f
10:36  -  2 mph 1035.1mb 40f 31f
10:30 2
mph
1034.9mb 40f 32f
10:24  -  2 mph 1034.9mb 40f 32f
10:18  -  3 mph 1034.9mb 40f 32f
10:12 3
mph
1034.9mb 40f 32f
10:06  -  2 mph 1034.9mb 40f 32f
10:00 2 7 mph 1034.7mb 40f 33f
9:54 3 5 mph 1034.5mb 40f 33f
9:48 5 6 mph 1034.4mb 40f 33f
9:42 2 5 mph 1034.4mb 40f 33f
9:36 3 5 mph 1034.5mb 40f 33f
9:30 2 5 mph 1034.5mb 40f 33f
9:24 3 6 mph 1034.7mb 40f 33f
9:18 3 6 mph 1034.5mb 40f 33f
9:12 5
mph
1034.2mb 40f 33f
9:06 3 6 mph 1034.2mb 40f 33f
9:00 3 6 mph 1034.1mb 40f 33f
8:54 5 6 mph 1034mb 40f 34f
8:48 3 6 mph 1033.8mb 40f 34f
8:42 3 5 mph 1033.7mb 40f 34f
8:36 2 5 mph 1033.7mb 40f 35f
8:30 2
mph
1033.5mb 40f 35f
8:24 2
mph
1033.4mb 40f 35f
8:18 2 3 mph 1033.3mb 40f 36f
8:12 2
mph
1033.1mb 40f 36f
8:06  -  2 mph 1033.1mb 40f 36f
8:00  -  3 mph 1033mb 40f 35f
7:54 2 3 mph 1033mb 40f 36f
7:48 1 3 mph 1033.1mb 40f 36f
7:42 2
mph
1032.9mb 40f 36f
7:36 2
mph
1032.8mb 40f 36f
7:30 1 3 mph 1032.8mb 40f 36f
7:24 2 3 mph 1032.7mb 40f 36f
7:18 2 3 mph 1032.6mb 40f 36f
7:12 3 5 mph 1032.6mb 40f 37f
7:06 2 5 mph 1032.6mb 40f 37f
7:00 2 6 mph 1032.6mb 40f 37f
6:54 2 8 mph 1032.5mb 40f 37f
6:48 5 8 mph 1032.3mb 40f 37f
6:42 7 13 mph 1032.2mb 40f 38f
6:36 5 11 mph 1032.1mb 40f 38f
6:30 7 14 mph 1032.2mb 40f 38f
6:24 6 10 mph 1032.2mb 40f 38f
6:18 6 13 mph 1032.1mb 40f 39f
6:12 7 17 mph 1032.1mb 40f 39f
6:06 6 13 mph 1031.9mb 40f 39f
6:00 6 9 mph 1032mb 40f 39f
5:54 7 17 mph 1031.9mb 40f 39f
5:48 10 15 mph 1031.8mb 40f 39f
5:42 7 15 mph 1031.6mb 40f 39f
5:36 3 10 mph 1031.6mb 40f 40f
5:30 7 11 mph 1031.7mb 40f 39f
5:24 6 14 mph 1031.7mb 40f 39f
5:18 9 17 mph 1031.7mb 40f 39f
5:12 9 20 mph 1031.6mb 40f 39f
5:06 8 16 mph 1031.6mb 40f 40f
5:00 8 15 mph 1031.6mb 40f 39f
4:54 9 18 mph 1031.6mb 40f 39f
4:48 10 17 mph 1031.6mb 40f 39f
4:42 9 16 mph 1031.6mb 40f 39f
4:36 13 17 mph 1031.6mb 40f 39f
4:30 10 16 mph 1031.6mb 40f 39f
4:24 13 18 mph 1031.7mb 40f 39f
4:18 6 14 mph 1031.7mb 40f 39f
4:12 7 16 mph 1031.7mb 40f 39f
4:06 13 18 mph 1031.7mb 40f 39f
4:00 9 17 mph 1031.6mb 40f 39f
3:54 6 11 mph 1031.7mb 40f 40f
3:48 5 14 mph 1031.7mb 40f 40f
3:42 10 16 mph 1031.6mb 40f 39f
3:36 8 14 mph 1031.6mb 40f 40f
3:30 7 14 mph 1031.6mb 40f 40f
3:24 7 15 mph 1031.5mb 40f 39f
3:18 9 16 mph 1031.4mb 40f 39f
3:12 8 14 mph 1031.6mb 40f 39f
3:06 9 13 mph 1031.5mb 40f 38f
3:00 5 14 mph 1031.5mb 40f 39f
2:54 6 10 mph 1031.5mb 40f 39f
2:48 6 16 mph 1031.6mb 40f 38f
2:42 10 17 mph 1031.7mb 40f 38f
2:36 9 16 mph 1031.8mb 40f 38f
2:30 5 13 mph 1031.8mb 40f 38f
2:24 9 17 mph 1031.8mb 39f 36f
2:18 8 13 mph 1031.9mb 39f 37f
2:12 8 17 mph 1031.9mb 39f 36f
2:06 10 17 mph 1032mb 39f 36f
2:00 8 17 mph 1032.1mb 39f 36f
1:54 13 20 mph 1032.2mb 39f 35f
1:48 11 18 mph 1032.4mb 39f 35f
1:42 9 17 mph 1032.4mb 39f 35f
1:36 8 17 mph 1032.4mb 39f 35f
1:30 7 18 mph 1032.6mb 39f 35f
1:24 9 15 mph 1032.6mb 39f 35f
1:18 6 14 mph 1032.8mb 39f 35f
1:12 6 11 mph 1032.9mb 39f 34f
1:06 9 14 mph 1032.9mb 39f 33f
1:00 9 16 mph 1032.9mb 39f 34f
12:54 9 16 mph 1032.9mb 39f 33f
12:48 9 14 mph 1033mb 39f 33f
12:42 8 13 mph 1033mb 39f 32f
12:36 9 14 mph 1033.1mb 39f 32f
12:30 9 14 mph 1033.1mb 38f 32f
12:24 8 13 mph 1033.3mb 39f 31f
12:18 8 16 mph 1033.4mb 38f 31f
12:12 7 13 mph 1033.6mb 38f 31f
12:06 6 13 mph 1033.6mb 38f 31f
12:00 7 13 mph 1033.7mb 38f 31f
11:54 8 16 mph 1033.7mb 38f 30f
11:48 11 16 mph 1033.8mb 38f 29f
11:42 6 14 mph 1033.9mb 38f 30f
11:36 8 13 mph 1033.9mb 38f 29f
11:30 8 13 mph 1034mb 39f 29f
11:24 13 18 mph 1034.1mb 38f 28f
11:18 8 13 mph 1034.1mb 39f 29f
11:12 6 14 mph 1034.1mb 39f 29f
11:06 7 11 mph 1034.2mb 39f 28f
11:00 7 16 mph 1034.3mb 39f 28f
10:54 8 13 mph 1034.3mb 39f 28f
10:48 7 13 mph 1034.4mb 39f 27f
10:42 8 14 mph 1034.3mb 39f 28f
10:36 7 11 mph 1034.4mb 40f 27f
10:30 9 13 mph 1034.4mb 40f 27f
10:24 7 10 mph 1034.4mb 40f 27f
10:18 10 17 mph 1034.5mb 40f 26f
10:12 13 17 mph 1034.3mb 40f 26f
10:06 9 14 mph 1034.3mb 40f 26f
10:00 8 13 mph 1034.3mb 40f 26f
9:54 10 15 mph 1034.3mb 40f 25f
9:48 7 11 mph 1034.3mb 40f 26f
9:42 8 14 mph 1034.2mb 40f 25f
9:36 6 11 mph 1034.2mb 40f 26f
9:30 8 15 mph 1034.2mb 40f 25f
9:24 11 15 mph 1034.2mb 40f 24f
9:18 8 15 mph 1034.1mb 40f 24f
9:12 6 13 mph 1034.1mb 39f 24f
9:06 10 15 mph 1034.1mb 40f 24f
9:00 10 16 mph 1034mb 40f 23f
8:54 8 14 mph 1034.1mb 40f 23f
8:48 8 14 mph 1034mb 40f 23f
8:42 8 14 mph 1034mb 40f 23f
8:36 7 11 mph 1034.1mb 40f 22f
8:30 6 11 mph 1034mb 40f 23f
8:24 6 10 mph 1033.9mb 40f 22f
8:18 3 8 mph 1033.9mb 40f 22f
8:12 5 10 mph 1033.9mb 40f 22f
8:06 5 13 mph 1033.8mb 40f 22f
8:00 3 8 mph 1033.8mb 40f 22f
7:54 6 14 mph 1033.8mb 40f 21f
7:48 6 9 mph 1033.6mb 40f 21f
7:42 5 9 mph 1033.6mb 40f 21f
7:36 6 9 mph 1033.4mb 40f 20f
7:30 5 8 mph 1033.2mb 40f 20f
7:24 6 8 mph 1033.2mb 40f 20f
7:18 6 9 mph 1033.1mb 40f 20f
7:12 5 9 mph 1032.9mb 40f 19f
7:06 5 8 mph 1032.8mb 40f 19f
7:00 6 8 mph 1032.7mb 40f 19f
6:54 5 8 mph 1032.6mb 40f 19f
6:48 5 8 mph 1032.5mb 40f 19f
6:42 5 8 mph 1032.4mb 40f 19f
6:36 5 7 mph 1032.3mb 40f 19f
6:30 5 7 mph 1032.1mb 40f 19f
6:24 3 6 mph 1032mb 40f 19f
6:18 3 7 mph 1032mb 40f 19f
6:12 3 6 mph 1031.8mb 40f 19f
6:06 5 6 mph 1031.8mb 40f 19f
6:00 2 6 mph 1031.7mb 40f 19f
5:54 3 6 mph 1031.6mb 40f 19f
5:48 6 9 mph 1031.5mb 40f 19f
5:42 5 10 mph 1031.4mb 40f 19f
5:36 3 8 mph 1031.3mb 40f 19f
5:30 3 6 mph 1031.3mb 40f 19f
5:24 5 7 mph 1031.2mb 40f 19f
5:18 5 7 mph 1031.2mb 40f 19f
5:12 3 6 mph 1031.1mb 40f 19f
5:06 3 6 mph 1031mb 40f 19f
5:00 2 6 mph 1030.9mb 40f 19f
4:54 3 6 mph 1030.8mb 40f 20f
4:48 3 7 mph 1030.7mb 40f 19f
4:42 1 5 mph 1030.7mb 40f 19f
4:36 3 5 mph 1030.6mb 40f 19f
4:30 2 3 mph 1030.6mb 40f 20f
4:24 3 5 mph 1030.6mb 40f 20f
4:18 2 6 mph 1030.5mb 40f 20f
4:12 3 6 mph 1030.4mb 40f 20f
4:06 3 6 mph 1030.4mb 40f 20f
4:00 5 6 mph 1030.3mb 40f 20f
3:54 3 6 mph 1030.3mb 40f 20f
3:48 3 7 mph 1030.3mb 40f 20f
3:42 5 7 mph 1030.2mb 40f 20f
3:36 3 6 mph 1030.2mb 40f 20f
3:30 3 7 mph 1030.2mb 40f 21f
3:24 3 7 mph 1030.1mb 40f 21f
3:18 5 9 mph 1030.1mb 40f 21f
3:12 3 8 mph 1030mb 40f 21f
3:06 6 10 mph 1029.9mb 40f 21f
3:00 7 10 mph 1029.9mb 40f 21f
2:54 7 15 mph 1029.9mb 40f 21f
2:48 7 11 mph 1029.9mb 40f -
2:42 6 10 mph 1029.9mb 40f -
2:36 6 9 mph 1029.8mb 40f -
2:30 6 9 mph 1029.8mb 40f 22f
2:24 7 11 mph 1029.8mb 40f 22f
2:18 7 10 mph 1029.7mb 40f 22f
2:12 7 13 mph 1029.6mb 40f 22f
2:06 8 11 mph 1029.6mb 40f 22f
2:00 6 11 mph 1029.6mb 40f 22f
1:54 10 16 mph 1029.5mb 40f 22f
1:48 8 16 mph 1029.4mb 40f -
1:42 10 16 mph 1029.4mb 40f -
1:36 6 14 mph 1029.4mb 40f -
1:30 7 14 mph 1029.3mb 40f 22f
1:24 6 9 mph 1029.2mb 40f 22f
1:18 5 9 mph 1029.2mb 40f 22f
1:12 5 11 mph 1029.2mb 40f 22f
1:06 6 9 mph 1029.1mb 40f 22f
1:00 7 11 mph 1029mb 40f 22f